Time;durP1;ratioP1;P1;durP2;ratioP2;P2;SDS_P1;SDS_P2;PMS_P1;PMS_P2;Temp;Humidity;BMP_temperature;BMP_pressure;BME280_temperature;BME280_humidity;BME280_pressure;Samples;Min_cycle;Max_cycle;Signal;HPM_P1;HPM_P2
2023/03/09 00:00:51;;;;;;;5.72;3.70;;;23.10;42.90;;;;;;6252824;28;80275;-68
2023/03/09 00:03:51;;;;;;;5.78;3.63;;;23.10;43.40;;;;;;6251630;27;80043;-65
2023/03/09 00:06:52;;;;;;;4.95;3.22;;;23.10;43.00;;;;;;6252931;28;87773;-65
2023/03/09 00:09:52;;;;;;;5.35;3.28;;;23.10;42.80;;;;;;6252265;27;81033;-68
2023/03/09 00:12:53;;;;;;;5.75;3.22;;;23.10;43.10;;;;;;6251936;28;80276;-68
2023/03/09 00:15:53;;;;;;;5.00;3.38;;;23.10;43.00;;;;;;6251029;27;80414;-68
2023/03/09 00:18:57;;;;;;;6.50;3.90;;;23.10;43.50;;;;;;6251516;27;80993;-66
2023/03/09 00:21:58;;;;;;;4.85;3.47;;;23.10;43.10;;;;;;6252530;28;81257;-66
2023/03/09 00:24:58;;;;;;;3.95;3.03;;;23.10;43.30;;;;;;6251662;27;80339;-64
2023/03/09 00:27:59;;;;;;;5.40;3.20;;;23.10;43.10;;;;;;6251543;28;80392;-65
2023/03/09 00:30:59;;;;;;;5.07;3.22;;;23.10;43.00;;;;;;6251566;27;81065;-64
2023/03/09 00:34:01;;;;;;;4.70;3.15;;;23.00;43.10;;;;;;6251186;27;81490;-67
2023/03/09 00:37:03;;;;;;;4.50;3.22;;;23.10;43.40;;;;;;6252003;27;81382;-67
2023/03/09 00:40:06;;;;;;;5.68;2.90;;;23.10;43.10;;;;;;6249628;27;81555;-66
2023/03/09 00:43:06;;;;;;;5.15;3.42;;;23.10;43.30;;;;;;6250642;28;81235;-65
2023/03/09 00:46:07;;;;;;;4.25;2.78;;;23.10;43.70;;;;;;6251065;28;81895;-65
2023/03/09 00:49:07;;;;;;;6.78;2.78;;;23.10;43.20;;;;;;6251785;28;80881;-66
2023/03/09 00:52:08;;;;;;;5.63;3.00;;;23.10;43.30;;;;;;6250352;27;80285;-72
2023/03/09 00:55:08;;;;;;;3.80;2.78;;;23.10;43.30;;;;;;6224128;28;81511;-71
2023/03/09 00:58:09;;;;;;;4.00;3.13;;;23.10;43.20;;;;;;6248237;28;81386;-71
2023/03/09 01:01:09;;;;;;;4.22;2.90;;;23.10;43.40;;;;;;6250313;28;80327;-69
2023/03/09 01:04:10;;;;;;;4.53;2.70;;;23.10;43.20;;;;;;6245956;28;81984;-70
2023/03/09 01:07:11;;;;;;;3.78;2.95;;;23.10;43.50;;;;;;6251022;28;80220;-75
2023/03/09 01:10:11;;;;;;;5.00;2.78;;;23.10;43.50;;;;;;6232607;28;83112;-70
2023/03/09 01:13:12;;;;;;;3.35;2.60;;;23.10;43.40;;;;;;6250630;28;80229;-69
2023/03/09 01:16:12;;;;;;;4.65;2.75;;;23.10;43.60;;;;;;6250548;27;80270;-69
2023/03/09 01:19:13;;;;;;;4.93;2.78;;;23.10;43.60;;;;;;6249431;28;80922;-68
2023/03/09 01:22:13;;;;;;;3.50;2.50;;;23.10;43.50;;;;;;6250910;27;80322;-67
2023/03/09 01:25:16;;;;;;;3.13;2.35;;;23.10;43.70;;;;;;6238999;27;82474;-68
2023/03/09 01:28:17;;;;;;;4.20;2.38;;;23.10;43.30;;;;;;6251275;27;82677;-67
2023/03/09 01:31:19;;;;;;;2.42;2.13;;;23.10;43.70;;;;;;6208148;28;82114;-66
2023/03/09 01:34:19;;;;;;;3.42;2.45;;;23.10;43.60;;;;;;6228619;28;83869;-67
2023/03/09 01:37:20;;;;;;;4.25;2.35;;;23.10;43.70;;;;;;6249013;27;80927;-66
2023/03/09 01:40:20;;;;;;;4.22;2.35;;;23.10;44.00;;;;;;6251769;28;83924;-65
2023/03/09 01:43:21;;;;;;;4.10;2.35;;;23.10;43.60;;;;;;6249258;28;81134;-65
2023/03/09 01:46:21;;;;;;;3.75;2.42;;;23.10;43.80;;;;;;6224107;28;83557;-66
2023/03/09 01:49:22;;;;;;;3.08;2.40;;;23.10;43.90;;;;;;6217657;27;82030;-65
2023/03/09 01:52:22;;;;;;;3.70;2.30;;;23.10;43.70;;;;;;6250745;28;80329;-65
2023/03/09 01:55:24;;;;;;;3.53;2.35;;;23.10;43.90;;;;;;6230826;28;82249;-65
2023/03/09 01:58:24;;;;;;;2.70;2.20;;;23.10;43.70;;;;;;6235721;28;82567;-64
2023/03/09 02:01:26;;;;;;;3.35;2.47;;;23.10;43.80;;;;;;6235730;28;83239;-65
2023/03/09 02:04:27;;;;;;;5.47;2.05;;;23.10;43.80;;;;;;6235494;27;83594;-66
2023/03/09 02:07:27;;;;;;;3.45;2.15;;;23.10;43.90;;;;;;6252743;27;80912;-62
2023/03/09 02:10:28;;;;;;;2.42;1.85;;;23.10;43.90;;;;;;6254273;28;81398;-61
2023/03/09 02:13:29;;;;;;;3.55;2.05;;;23.10;44.40;;;;;;6253757;27;81863;-61
2023/03/09 02:16:29;;;;;;;3.70;2.45;;;23.10;43.90;;;;;;6255097;28;81706;-61
2023/03/09 02:19:30;;;;;;;3.95;2.42;;;23.10;44.00;;;;;;6231738;28;83253;-61
2023/03/09 02:22:31;;;;;;;3.03;2.03;;;23.00;43.70;;;;;;6235875;28;82136;-62
2023/03/09 02:25:32;;;;;;;3.53;2.22;;;23.10;44.00;;;;;;6236253;28;86981;-70
2023/03/09 02:28:33;;;;;;;5.30;2.25;;;23.10;44.00;;;;;;6234701;28;83194;-73
2023/03/09 02:31:33;;;;;;;2.28;1.80;;;23.10;43.70;;;;;;6224112;28;83446;-74
2023/03/09 02:34:34;;;;;;;2.67;1.80;;;23.10;44.10;;;;;;6243335;28;82013;-70
2023/03/09 02:37:35;;;;;;;2.85;2.35;;;23.10;44.00;;;;;;6245426;28;83661;-70
2023/03/09 02:40:40;;;;;;;;;;;23.10;44.10;;;;;;6234467;27;83753;-70
2023/03/09 02:43:47;;;;;;;2.60;1.95;;;23.10;44.30;;;;;;6249610;28;82061;-68
2023/03/09 02:46:48;;;;;;;2.95;2.25;;;23.10;44.20;;;;;;6232266;28;80626;-72
2023/03/09 02:49:49;;;;;;;2.67;1.73;;;23.10;44.20;;;;;;6231298;27;81767;-73
2023/03/09 02:52:51;;;;;;;2.63;2.22;;;23.10;44.40;;;;;;6222211;28;83504;-71
2023/03/09 02:55:52;;;;;;;2.67;1.90;;;23.10;44.30;;;;;;6255064;28;80526;-74
2023/03/09 02:58:53;;;;;;;3.72;2.25;;;23.10;44.30;;;;;;6235290;28;82211;-74
2023/03/09 03:01:53;;;;;;;2.10;1.60;;;23.00;44.00;;;;;;6218897;28;83586;-64
2023/03/09 03:04:55;;;;;;;2.17;1.98;;;23.00;44.10;;;;;;6247564;28;83382;-65
2023/03/09 03:07:58;;;;;;;2.53;1.83;;;23.00;44.00;;;;;;6221081;28;83227;-64
2023/03/09 03:10:59;;;;;;;4.78;2.30;;;23.00;44.20;;;;;;6221451;28;83298;-65
2023/03/09 03:14:00;;;;;;;4.80;2.22;;;23.00;44.50;;;;;;6252969;27;80838;-66
2023/03/09 03:17:01;;;;;;;3.47;2.05;;;23.00;44.40;;;;;;6234590;28;83822;-65
2023/03/09 03:20:02;;;;;;;1.88;1.75;;;23.00;44.60;;;;;;6224932;28;80627;-64
2023/03/09 03:23:04;;;;;;;4.00;1.80;;;23.00;44.80;;;;;;6233409;28;83191;-61
2023/03/09 03:26:12;;;;;;;2.92;1.77;;;23.00;45.00;;;;;;6234569;28;83032;-61
2023/03/09 03:29:17;;;;;;;2.50;1.90;;;23.00;44.60;;;;;;6226978;28;83396;-62
2023/03/09 03:32:18;;;;;;;1.73;1.52;;;23.00;44.50;;;;;;6229064;27;83033;-64
2023/03/09 03:35:19;;;;;;;2.30;1.95;;;23.00;44.70;;;;;;6233104;27;81389;-64
2023/03/09 03:38:20;;;;;;;2.15;1.80;;;23.00;44.70;;;;;;6234501;28;82850;-72
2023/03/09 03:41:21;;;;;;;2.60;2.03;;;23.00;44.70;;;;;;6224269;28;83224;-73
2023/03/09 03:44:26;;;;;;;3.63;1.70;;;23.00;44.70;;;;;;6241363;27;80360;-70
2023/03/09 03:47:26;;;;;;;2.15;1.48;;;23.00;44.90;;;;;;6244751;28;83675;-73
2023/03/09 03:50:27;;;;;;;2.50;1.48;;;23.00;44.80;;;;;;6252798;28;81348;-74
2023/03/09 03:53:33;;;;;;;1.73;1.50;;;23.00;44.80;;;;;;6251897;28;80910;-75
2023/03/09 03:56:34;;;;;;;1.98;1.55;;;23.00;44.80;;;;;;6240203;27;82967;-74
2023/03/09 03:59:40;;;;;;;2.00;1.58;;;23.00;44.70;;;;;;6234083;28;83948;-76
2023/03/09 04:02:41;;;;;;;2.58;1.42;;;23.00;44.80;;;;;;6225400;28;83875;-73
2023/03/09 04:05:49;;;;;;;1.42;1.30;;;23.00;45.00;;;;;;6226098;27;82123;-73
2023/03/09 04:08:52;;;;;;;1.77;1.35;;;23.00;44.70;;;;;;6232546;28;83024;-73
2023/03/09 04:11:52;;;;;;;2.53;1.38;;;23.00;45.10;;;;;;6226565;28;80951;-72
2023/03/09 04:14:54;;;;;;;1.77;1.40;;;23.10;44.90;;;;;;6220488;28;83833;-76
2023/03/09 04:17:54;;;;;;;3.67;1.85;;;23.00;44.80;;;;;;6251294;27;80797;-71
2023/03/09 04:20:55;;;;;;;2.35;1.25;;;23.00;44.60;;;;;;6226886;28;82913;-79
2023/03/09 04:23:56;;;;;;;1.80;1.30;;;23.10;44.70;;;;;;6244286;27;80487;-71
2023/03/09 04:26:56;;;;;;;1.63;1.33;;;23.10;44.60;;;;;;6237012;27;83742;-70
2023/03/09 04:30:20;;;;;;;1.70;1.25;;;23.20;44.50;;;;;;6246727;28;80679;-65
2023/03/09 04:33:20;;;;;;;0.90;0.90;;;23.30;44.60;;;;;;6228571;27;82057;-67
2023/03/09 04:36:21;;;;;;;1.90;1.10;;;23.30;44.60;;;;;;6226300;28;82801;-72
2023/03/09 04:39:23;;;;;;;1.55;1.40;;;23.30;44.60;;;;;;6239508;28;81111;-77
2023/03/09 04:42:24;;;;;;;1.65;1.30;;;23.30;44.60;;;;;;6239988;27;83398;-74
2023/03/09 04:45:25;;;;;;;1.40;1.05;;;23.40;44.50;;;;;;6241911;28;83350;-71
2023/03/09 04:48:27;;;;;;;4.93;1.40;;;23.40;44.50;;;;;;6224837;27;82696;-75
2023/03/09 04:51:29;;;;;;;3.38;1.55;;;23.50;44.80;;;;;;6244050;27;80915;-64
2023/03/09 04:54:31;;;;;;;1.50;1.08;;;23.40;44.70;;;;;;6204633;28;83405;-63
2023/03/09 04:57:32;;;;;;;6.13;1.30;;;23.50;44.80;;;;;;6245094;27;85743;-62
2023/03/09 05:00:33;;;;;;;14.77;1.92;;;23.50;45.10;;;;;;6240656;27;80452;-67
2023/03/09 05:03:35;;;;;;;9.38;1.20;;;23.50;45.10;;;;;;6220116;28;82332;-74
2023/03/09 05:06:36;;;;;;;1.85;1.30;;;23.50;44.90;;;;;;6217340;27;82077;-70
2023/03/09 05:09:37;;;;;;;1.83;1.30;;;23.50;44.80;;;;;;6209837;27;86579;-73
2023/03/09 05:12:38;;;;;;;4.18;1.20;;;23.50;45.30;;;;;;6226713;28;83073;-70
2023/03/09 05:15:42;;;;;;;2.63;1.40;;;23.50;45.00;;;;;;6225721;28;83302;-68
2023/03/09 05:18:44;;;;;;;1.42;1.30;;;23.50;45.00;;;;;;6226214;28;83615;-75
2023/03/09 05:21:47;;;;;;;1.88;1.23;;;23.50;45.60;;;;;;6223112;28;83319;-68
2023/03/09 05:24:49;;;;;;;1.73;1.20;;;23.50;46.00;;;;;;6226188;28;81784;-68
2023/03/09 05:27:51;;;;;;;1.83;1.33;;;23.50;46.20;;;;;;6219531;27;83585;-62
2023/03/09 05:30:52;;;;;;;4.03;1.50;;;23.50;46.50;;;;;;6222037;28;82748;-62
2023/03/09 05:33:53;;;;;;;1.40;1.20;;;23.50;46.80;;;;;;6236157;27;81861;-62
2023/03/09 05:36:54;;;;;;;5.45;1.67;;;23.50;47.10;;;;;;6238728;28;83788;-62
2023/03/09 05:39:59;;;;;;;1.90;1.55;;;23.50;47.10;;;;;;6227664;28;83705;-70
2023/03/09 05:42:59;;;;;;;5.28;1.50;;;23.50;47.30;;;;;;6232051;28;80420;-72
2023/03/09 05:46:00;;;;;;;1.88;1.38;;;23.60;47.10;;;;;;6212659;28;83470;-66
2023/03/09 05:49:00;;;;;;;3.92;1.85;;;23.60;47.00;;;;;;6189248;28;88116;-60
2023/03/09 05:52:01;;;;;;;3.83;2.10;;;23.60;46.80;;;;;;6206136;28;83145;-59
2023/03/09 05:55:03;;;;;;;4.80;1.77;;;23.60;46.30;;;;;;6206879;28;82898;-65
2023/03/09 05:58:05;;;;;;;4.15;2.55;;;23.60;46.10;;;;;;6229889;28;80982;-69
2023/03/09 06:01:06;;;;;;;3.20;2.05;;;23.60;45.90;;;;;;6209237;28;83124;-65
2023/03/09 06:04:08;;;;;;;5.63;2.45;;;23.50;46.20;;;;;;6211219;28;82690;-61
2023/03/09 06:07:11;;;;;;;3.95;2.47;;;23.60;46.00;;;;;;6212161;28;81770;-62
2023/03/09 06:10:16;;;;;;;4.72;2.38;;;23.60;45.80;;;;;;6206828;28;82133;-61
2023/03/09 06:13:17;;;;;;;2.97;1.90;;;23.50;45.60;;;;;;6205255;28;83837;-61
2023/03/09 06:16:18;;;;;;;3.92;2.72;;;23.50;45.50;;;;;;6208451;28;83862;-61
2023/03/09 06:19:18;;;;;;;3.97;2.03;;;23.60;45.40;;;;;;6228197;28;80427;-61
2023/03/09 06:22:19;;;;;;;3.78;2.30;;;23.50;45.40;;;;;;6204191;28;82633;-60
2023/03/09 06:25:21;;;;;;;3.67;2.13;;;23.50;45.20;;;;;;6203651;28;83345;-61
2023/03/09 06:28:22;;;;;;;3.78;2.40;;;23.50;45.00;;;;;;6220775;28;81112;-63
2023/03/09 06:31:23;;;;;;;4.45;2.22;;;23.40;45.30;;;;;;6196466;28;81878;-64
2023/03/09 06:34:27;;;;;;;3.65;2.40;;;23.40;45.20;;;;;;6202396;28;83488;-63
2023/03/09 06:37:28;;;;;;;5.32;2.72;;;23.40;45.10;;;;;;6199287;28;83623;-61
2023/03/09 06:40:29;;;;;;;7.78;2.60;;;23.30;44.80;;;;;;6202684;28;81730;-62
2023/03/09 06:43:30;;;;;;;3.13;2.50;;;23.40;44.70;;;;;;6226991;28;82057;-60
2023/03/09 06:46:31;;;;;;;4.90;2.72;;;23.30;44.50;;;;;;6222326;28;83883;-60
2023/03/09 06:49:31;;;;;;;5.47;2.25;;;23.30;44.30;;;;;;6221166;28;82033;-61
2023/03/09 06:52:35;;;;;;;3.65;2.20;;;23.30;44.20;;;;;;6220227;28;87262;-65
2023/03/09 06:55:37;;;;;;;5.10;2.40;;;23.20;44.00;;;;;;6217519;28;81009;-62
2023/03/09 06:58:37;;;;;;;4.15;2.38;;;23.20;43.90;;;;;;6245488;28;81315;-66
2023/03/09 07:01:38;;;;;;;2.63;1.98;;;23.20;43.80;;;;;;6250233;28;81006;-67
2023/03/09 07:04:39;;;;;;;3.08;2.17;;;23.10;43.60;;;;;;6250192;27;81071;-67
2023/03/09 07:07:41;;;;;;;3.65;1.80;;;23.10;43.50;;;;;;6232960;28;81626;-67
2023/03/09 07:10:41;;;;;;;3.53;1.88;;;23.00;43.40;;;;;;6250261;27;80591;-67
2023/03/09 07:13:42;;;;;;;2.03;1.67;;;23.00;43.40;;;;;;6250393;27;80597;-69
2023/03/09 07:16:42;;;;;;;2.92;1.75;;;23.00;43.30;;;;;;6250627;27;80607;-68
2023/03/09 07:19:44;;;;;;;2.70;1.63;;;23.00;43.30;;;;;;6242317;28;81107;-68
2023/03/09 07:22:44;;;;;;;2.50;1.58;;;22.90;43.20;;;;;;6242718;28;81494;-69
2023/03/09 07:25:45;;;;;;;2.90;1.88;;;22.90;43.20;;;;;;6247643;28;81159;-67
2023/03/09 07:28:45;;;;;;;2.63;1.85;;;22.90;43.20;;;;;;6252981;28;80407;-67
2023/03/09 07:31:46;;;;;;;3.17;1.60;;;22.80;43.20;;;;;;6252305;28;80346;-68
2023/03/09 07:34:46;;;;;;;4.63;1.73;;;22.80;43.30;;;;;;6253280;28;81552;-68
2023/03/09 07:37:47;;;;;;;3.00;1.55;;;22.80;43.20;;;;;;6253268;28;80404;-64
2023/03/09 07:40:47;;;;;;;2.50;1.55;;;22.80;43.30;;;;;;6249231;27;81450;-65
2023/03/09 07:43:48;;;;;;;3.03;1.70;;;22.70;43.20;;;;;;6227936;28;80566;-64
2023/03/09 07:46:53;;;;;;;3.15;1.70;;;22.70;43.20;;;;;;6196351;28;83285;-64
2023/03/09 07:49:54;;;;;;;3.60;1.70;;;22.70;43.20;;;;;;6197534;28;85449;-68
2023/03/09 07:52:55;;;;;;;3.03;1.90;;;22.70;43.20;;;;;;6210976;28;81985;-67
2023/03/09 07:55:55;;;;;;;5.47;1.48;;;22.70;43.20;;;;;;6226146;28;83935;-64
2023/03/09 07:58:56;;;;;;;3.03;1.92;;;22.70;43.20;;;;;;6218393;28;80663;-69
2023/03/09 08:01:56;;;;;;;6.47;1.70;;;22.70;43.30;;;;;;6221849;28;80639;-69
2023/03/09 08:04:57;;;;;;;2.30;1.95;;;22.70;43.30;;;;;;6229008;28;81188;-68
2023/03/09 08:07:57;;;;;;;6.15;2.38;;;22.70;43.30;;;;;;6226157;28;81174;-76
2023/03/09 08:10:58;;;;;;;3.45;1.85;;;22.80;43.30;;;;;;6225520;28;83962;-68
2023/03/09 08:13:58;;;;;;;4.35;2.05;;;22.80;43.30;;;;;;6223270;28;80591;-68
2023/03/09 08:17:01;;;;;;;4.10;2.05;;;22.80;43.30;;;;;;6228883;28;83031;-68
2023/03/09 08:20:02;;;;;;;5.53;2.58;;;22.80;43.50;;;;;;6207234;28;81974;-70
2023/03/09 08:23:03;;;;;;;5.47;2.30;;;22.90;43.60;;;;;;6224043;28;80534;-71
2023/03/09 08:26:03;;;;;;;6.97;2.05;;;22.80;43.70;;;;;;6229129;28;81311;-66
2023/03/09 08:29:04;;;;;;;6.03;2.15;;;22.90;43.70;;;;;;6228255;28;80745;-67
2023/03/09 08:32:04;;;;;;;3.83;2.08;;;22.90;43.70;;;;;;6198852;28;81573;-67
2023/03/09 08:35:05;;;;;;;9.05;2.33;;;22.90;43.70;;;;;;6227615;28;80091;-66
2023/03/09 08:38:05;;;;;;;6.43;2.28;;;22.90;43.80;;;;;;6224189;28;81520;-66
2023/03/09 08:41:06;;;;;;;5.72;2.45;;;22.90;43.80;;;;;;6227201;28;82753;-67
2023/03/09 08:44:07;;;;;;;13.85;3.17;;;23.00;43.90;;;;;;6227233;28;80582;-66
2023/03/09 08:47:07;;;;;;;7.75;2.58;;;23.00;43.90;;;;;;6227557;28;84499;-59
2023/03/09 08:50:09;;;;;;;16.25;2.67;;;23.00;44.00;;;;;;6220791;28;81269;-63
2023/03/09 08:53:09;;;;;;;12.18;3.03;;;23.00;44.20;;;;;;6222280;28;80559;-63
2023/03/09 08:56:10;;;;;;;6.45;2.97;;;23.00;44.50;;;;;;6224777;28;80487;-62
2023/03/09 08:59:11;;;;;;;7.97;2.70;;;23.00;44.60;;;;;;6227592;28;80263;-65
2023/03/09 09:02:14;;;;;;;8.05;3.20;;;23.10;44.80;;;;;;6229033;28;80590;-64
2023/03/09 09:05:14;;;;;;;5.13;2.83;;;23.10;44.70;;;;;;6219908;28;81012;-62
2023/03/09 09:08:15;;;;;;;6.05;2.95;;;23.10;44.90;;;;;;6224778;28;80651;-61
2023/03/09 09:11:15;;;;;;;6.93;3.35;;;23.10;44.70;;;;;;6226255;28;80600;-62
2023/03/09 09:14:16;;;;;;;7.20;2.60;;;23.10;44.80;;;;;;6224729;28;80603;-61
2023/03/09 09:17:17;;;;;;;3.80;2.30;;;23.10;44.80;;;;;;6227246;28;80762;-63
2023/03/09 09:20:17;;;;;;;5.97;2.78;;;23.20;45.00;;;;;;6222518;28;80615;-60
2023/03/09 09:23:18;;;;;;;7.18;2.75;;;23.20;45.10;;;;;;6228056;28;80260;-63
2023/03/09 09:26:18;;;;;;;7.28;2.70;;;23.20;45.00;;;;;;6227338;28;80475;-69
2023/03/09 09:29:19;;;;;;;4.30;2.55;;;23.20;45.60;;;;;;6226563;28;80292;-66
2023/03/09 09:32:19;;;;;;;3.65;1.90;;;23.20;45.50;;;;;;6226467;28;82392;-72
2023/03/09 09:35:20;;;;;;;3.58;1.95;;;23.20;45.40;;;;;;6224027;28;81907;-70
2023/03/09 09:38:20;;;;;;;3.47;1.98;;;23.20;45.40;;;;;;6226664;28;80371;-67
2023/03/09 09:41:21;;;;;;;6.53;2.10;;;23.20;45.30;;;;;;6207877;28;82804;-67
2023/03/09 09:44:21;;;;;;;3.85;2.22;;;23.30;45.40;;;;;;6220303;28;83426;-66
2023/03/09 09:47:22;;;;;;;4.15;1.90;;;23.20;45.30;;;;;;6224852;28;81079;-68
2023/03/09 09:50:23;;;;;;;4.60;2.13;;;23.30;45.40;;;;;;6221931;28;80638;-69
2023/03/09 09:53:23;;;;;;;5.82;1.88;;;23.20;45.40;;;;;;6225400;28;82157;-68
2023/03/09 09:56:24;;;;;;;4.40;2.00;;;23.20;45.40;;;;;;6223805;28;82722;-66
2023/03/09 09:59:24;;;;;;;2.03;1.80;;;23.30;45.50;;;;;;6221524;28;85245;-67
2023/03/09 10:02:25;;;;;;;4.88;1.95;;;23.20;45.50;;;;;;6222064;28;81284;-69
2023/03/09 10:05:25;;;;;;;3.30;1.80;;;23.20;45.50;;;;;;6225392;28;82271;-64
2023/03/09 10:08:26;;;;;;;5.15;1.88;;;23.20;45.50;;;;;;6223385;28;80348;-61
2023/03/09 10:11:26;;;;;;;5.10;2.25;;;23.20;45.70;;;;;;6226120;28;80590;-64
2023/03/09 10:14:27;;;;;;;4.90;2.80;;;23.20;46.40;;;;;;6224706;28;80860;-64
2023/03/09 10:17:27;;;;;;;4.65;2.42;;;23.20;47.10;;;;;;6225803;28;80536;-63
2023/03/09 10:20:28;;;;;;;3.95;2.65;;;23.20;47.80;;;;;;6220270;28;81102;-63
2023/03/09 10:23:29;;;;;;;7.63;3.35;;;23.20;48.80;;;;;;6231597;28;80939;-63
2023/03/09 10:26:30;;;;;;;7.13;2.88;;;23.20;49.60;;;;;;6230512;28;80905;-61
2023/03/09 10:29:30;;;;;;;8.07;2.90;;;23.20;49.70;;;;;;6230614;28;80929;-62
2023/03/09 10:32:31;;;;;;;4.53;2.78;;;23.20;50.20;;;;;;6227590;28;81808;-62
2023/03/09 10:35:31;;;;;;;3.65;2.85;;;23.10;50.90;;;;;;6230512;28;80712;-62
2023/03/09 10:38:32;;;;;;;3.65;2.70;;;23.10;50.40;;;;;;6224788;28;80338;-63
2023/03/09 10:41:32;;;;;;;8.13;3.33;;;23.10;50.50;;;;;;6229999;28;81425;-66
2023/03/09 10:44:33;;;;;;;7.30;4.05;;;23.10;50.80;;;;;;6230730;27;80582;-63
2023/03/09 10:47:33;;;;;;;5.30;3.22;;;23.10;50.80;;;;;;6277860;27;81126;-61
2023/03/09 10:50:34;;;;;;;5.15;2.75;;;23.10;51.50;;;;;;6280840;27;80512;-62
2023/03/09 10:53:35;;;;;;;4.13;2.80;;;23.10;50.90;;;;;;6280696;27;80367;-62
2023/03/09 10:56:36;;;;;;;5.15;2.53;;;23.10;50.80;;;;;;6273628;27;83051;-64
2023/03/09 10:59:36;;;;;;;3.42;2.30;;;23.10;51.00;;;;;;6277671;27;81250;-60
2023/03/09 11:02:37;;;;;;;4.70;2.50;;;23.10;51.20;;;;;;6274518;27;80451;-63
2023/03/09 11:05:37;;;;;;;5.50;2.55;;;23.10;50.90;;;;;;6279852;27;81140;-58
2023/03/09 11:08:38;;;;;;;3.47;2.42;;;23.10;50.90;;;;;;6280676;27;80631;-60
2023/03/09 11:11:38;;;;;;;5.35;2.40;;;23.10;51.00;;;;;;6280014;27;80852;-61
2023/03/09 11:14:39;;;;;;;3.10;2.13;;;23.10;51.10;;;;;;6280681;27;80360;-59
2023/03/09 11:17:39;;;;;;;2.42;1.70;;;23.10;51.20;;;;;;6276999;27;80286;-63
2023/03/09 11:20:40;;;;;;;3.42;2.40;;;23.10;51.30;;;;;;6269286;27;81356;-64
2023/03/09 11:23:40;;;;;;;3.08;2.20;;;23.10;50.90;;;;;;6242758;27;80605;-63
2023/03/09 11:26:41;;;;;;;4.28;2.05;;;23.10;50.70;;;;;;6280711;27;80355;-63
2023/03/09 11:29:41;;;;;;;3.28;1.83;;;23.10;51.20;;;;;;6276116;27;80691;-64
2023/03/09 11:32:42;;;;;;;5.93;2.20;;;23.20;52.10;;;;;;6279080;27;80188;-64
2023/03/09 11:35:42;;;;;;;4.78;2.20;;;23.20;52.80;;;;;;6279579;27;80191;-64
2023/03/09 11:38:43;;;;;;;3.17;2.25;;;23.10;53.30;;;;;;6272717;27;80658;-64
2023/03/09 11:41:43;;;;;;;6.05;2.45;;;23.20;53.60;;;;;;6275460;27;80518;-62
2023/03/09 11:44:44;;;;;;;4.85;2.55;;;23.20;54.20;;;;;;6271379;27;80419;-63
2023/03/09 11:47:44;;;;;;;4.07;2.38;;;23.20;54.80;;;;;;6273455;27;80553;-62
2023/03/09 11:50:45;;;;;;;4.07;2.53;;;23.20;55.20;;;;;;6279129;27;80324;-62
2023/03/09 11:53:46;;;;;;;3.75;2.15;;;23.20;55.50;;;;;;6278934;27;80395;-63
2023/03/09 11:56:46;;;;;;;3.38;2.45;;;23.20;55.80;;;;;;6278790;27;80591;-62
2023/03/09 11:59:47;;;;;;;6.93;2.70;;;23.20;55.90;;;;;;6275216;27;81886;-61
2023/03/09 12:02:47;;;;;;;4.55;2.40;;;23.20;56.20;;;;;;6275525;27;80782;-63
2023/03/09 12:05:48;;;;;;;3.17;2.28;;;23.20;56.20;;;;;;6272121;27;80798;-63
2023/03/09 12:08:48;;;;;;;4.60;2.58;;;23.20;56.60;;;;;;6275950;27;81370;-62
2023/03/09 12:11:49;;;;;;;4.95;2.67;;;23.20;56.90;;;;;;6275289;27;81169;-73
2023/03/09 12:14:50;;;;;;;6.00;2.78;;;23.20;57.10;;;;;;6275661;27;81027;-74
2023/03/09 12:17:50;;;;;;;4.57;2.53;;;23.30;57.70;;;;;;6279233;27;81032;-75
2023/03/09 12:20:51;;;;;;;7.57;2.47;;;23.30;57.80;;;;;;6266246;27;80774;-74
2023/03/09 12:23:51;;;;;;;4.40;2.30;;;23.30;57.80;;;;;;6278681;27;81130;-71
2023/03/09 12:26:52;;;;;;;4.43;2.33;;;23.30;57.90;;;;;;6257674;27;81458;-72
2023/03/09 12:29:52;;;;;;;3.83;2.63;;;23.30;58.10;;;;;;6256625;27;80397;-62
2023/03/09 12:32:56;;;;;;;3.03;2.10;;;23.30;58.30;;;;;;6278630;27;80240;-62
2023/03/09 12:35:57;;;;;;;4.70;2.22;;;23.30;58.10;;;;;;6278224;27;83513;-65
2023/03/09 12:38:57;;;;;;;5.88;2.30;;;23.40;58.50;;;;;;6277065;27;80306;-64
2023/03/09 12:41:58;;;;;;;5.22;2.20;;;23.40;58.50;;;;;;6276464;27;80319;-65
2023/03/09 12:44:58;;;;;;;3.85;2.45;;;23.40;58.70;;;;;;6278373;27;80444;-66
2023/03/09 12:47:59;;;;;;;3.63;2.03;;;23.50;58.80;;;;;;6277340;27;81207;-64
2023/03/09 12:50:59;;;;;;;3.50;2.10;;;23.40;59.00;;;;;;6278469;27;80660;-65
2023/03/09 12:54:01;;;;;;;2.65;2.08;;;23.50;59.10;;;;;;6277897;27;80744;-65
2023/03/09 12:57:01;;;;;;;3.55;1.80;;;23.40;59.20;;;;;;6270455;27;81223;-63
2023/03/09 13:00:02;;;;;;;4.45;2.25;;;23.40;58.00;;;;;;6276222;27;81245;-64
2023/03/09 13:03:02;;;;;;;4.22;2.28;;;23.20;56.40;;;;;;6274970;27;81763;-64
2023/03/09 13:06:03;;;;;;;3.97;2.10;;;22.80;55.00;;;;;;6275768;27;80444;-65
2023/03/09 13:09:03;;;;;;;4.07;2.42;;;22.60;54.20;;;;;;6277678;27;80654;-64
2023/03/09 13:12:04;;;;;;;5.95;3.25;;;22.50;53.90;;;;;;6276147;27;81450;-64
2023/03/09 13:15:05;;;;;;;12.98;4.68;;;22.40;53.20;;;;;;6263696;27;80964;-64
2023/03/09 13:18:05;;;;;;;15.73;6.75;;;21.80;53.00;;;;;;6262278;27;81614;-64
2023/03/09 13:21:06;;;;;;;13.48;7.47;;;21.40;54.60;;;;;;6270575;27;80447;-65
2023/03/09 13:24:06;;;;;;;15.27;7.60;;;21.30;53.60;;;;;;6275600;27;81042;-64
2023/03/09 13:27:07;;;;;;;11.60;7.47;;;21.10;53.60;;;;;;6275238;27;82594;-64
2023/03/09 13:30:07;;;;;;;12.10;7.95;;;20.90;54.30;;;;;;6277601;27;80665;-65
2023/03/09 13:33:08;;;;;;;8.70;5.65;;;21.10;53.50;;;;;;6275678;27;82061;-62
2023/03/09 13:36:09;;;;;;;6.90;5.13;;;20.70;53.60;;;;;;6241249;27;82125;-60
2023/03/09 13:39:10;;;;;;;5.10;4.10;;;21.00;54.20;;;;;;6266887;27;83033;-60
2023/03/09 13:42:10;;;;;;;4.63;3.30;;;21.20;53.30;;;;;;6275068;27;80521;-61
2023/03/09 13:45:11;;;;;;;4.88;2.83;;;21.30;53.50;;;;;;6275028;27;80681;-62
2023/03/09 13:48:12;;;;;;;3.22;2.13;;;21.30;53.30;;;;;;6273829;27;81286;-61
2023/03/09 13:51:12;;;;;;;3.38;2.63;;;21.40;52.80;;;;;;6274294;27;80534;-61
2023/03/09 13:54:13;;;;;;;3.25;2.08;;;21.40;53.50;;;;;;6277954;27;80402;-62
2023/03/09 13:57:13;;;;;;;3.33;2.10;;;21.30;52.40;;;;;;6277080;27;80725;-61
2023/03/09 14:00:14;;;;;;;2.55;2.00;;;21.40;51.70;;;;;;6276952;27;80904;-61
2023/03/09 14:03:14;;;;;;;3.15;2.15;;;21.00;52.10;;;;;;6280033;27;80660;-75
2023/03/09 14:06:15;;;;;;;2.50;1.92;;;21.10;52.40;;;;;;6276082;27;81689;-65
2023/03/09 14:09:15;;;;;;;5.70;2.78;;;21.00;52.10;;;;;;6241881;27;80236;-61
2023/03/09 14:12:16;;;;;;;4.90;2.88;;;20.90;52.20;;;;;;6279010;27;81698;-63
2023/03/09 14:15:16;;;;;;;4.28;2.58;;;21.20;51.80;;;;;;6275155;27;80507;-63
2023/03/09 14:18:17;;;;;;;8.18;2.63;;;21.40;52.10;;;;;;6269671;27;84139;-63
2023/03/09 14:21:17;;;;;;;4.38;2.55;;;21.60;52.70;;;;;;6278508;27;84017;-63
2023/03/09 14:24:18;;;;;;;3.63;2.15;;;21.70;52.80;;;;;;6271988;27;80450;-63
2023/03/09 14:27:18;;;;;;;3.65;2.50;;;21.90;53.60;;;;;;6279381;27;83902;-64
2023/03/09 14:30:19;;;;;;;4.35;2.33;;;22.00;53.30;;;;;;6278828;27;80326;-63
2023/03/09 14:33:19;;;;;;;4.22;2.25;;;22.10;54.10;;;;;;6278096;27;80872;-61
2023/03/09 14:36:20;;;;;;;3.40;2.22;;;22.20;54.20;;;;;;6279580;27;80678;-62
2023/03/09 14:39:21;;;;;;;3.95;2.30;;;22.20;54.50;;;;;;6274614;27;81433;-59
2023/03/09 14:42:21;;;;;;;3.35;2.20;;;22.30;54.90;;;;;;6278781;27;80752;-59
2023/03/09 14:45:22;;;;;;;6.07;2.38;;;22.40;54.90;;;;;;6276198;27;80495;-58
2023/03/09 14:48:22;;;;;;;3.20;2.03;;;22.50;55.00;;;;;;6279168;27;80504;-58
2023/03/09 14:51:23;;;;;;;2.60;1.90;;;22.60;55.00;;;;;;6276470;27;80447;-61
2023/03/09 14:54:24;;;;;;;3.63;2.03;;;22.60;54.80;;;;;;6275998;27;82161;-60
2023/03/09 14:57:25;;;;;;;5.32;2.17;;;22.70;54.80;;;;;;6272934;27;81729;-59
2023/03/09 15:00:25;;;;;;;4.32;2.30;;;22.70;54.90;;;;;;6279996;27;80736;-59
2023/03/09 15:03:26;;;;;;;4.38;2.50;;;22.70;54.70;;;;;;6256818;27;82166;-58
2023/03/09 15:06:27;;;;;;;5.88;2.30;;;22.70;54.90;;;;;;6249620;27;86024;-59
2023/03/09 15:09:28;;;;;;;4.80;2.55;;;22.80;54.80;;;;;;6253839;27;80466;-55
2023/03/09 15:12:28;;;;;;;10.95;2.70;;;22.80;55.10;;;;;;6237810;27;81336;-56
2023/03/09 15:15:29;;;;;;;5.32;2.90;;;22.80;54.90;;;;;;6272513;27;80861;-71
2023/03/09 15:18:29;;;;;;;5.70;3.30;;;22.90;54.70;;;;;;6264260;27;81288;-61
2023/03/09 15:21:30;;;;;;;7.43;3.20;;;22.90;53.80;;;;;;6258208;27;82087;-67
2023/03/09 15:24:30;;;;;;;4.78;3.03;;;23.00;53.40;;;;;;6262884;27;82034;-63
2023/03/09 15:27:31;;;;;;;4.60;3.05;;;23.00;53.00;;;;;;6268240;27;83921;-62
2023/03/09 15:30:31;;;;;;;5.55;3.17;;;23.00;52.00;;;;;;6265032;27;80749;-61
2023/03/09 15:33:32;;;;;;;4.85;3.58;;;23.00;51.80;;;;;;6267299;27;80832;-62
2023/03/09 15:36:32;;;;;;;4.05;3.22;;;23.10;51.60;;;;;;6279037;27;82892;-64
2023/03/09 15:39:33;;;;;;;5.55;3.45;;;23.10;51.00;;;;;;6280292;27;80331;-64